Time;durP1;ratioP1;P1;durP2;ratioP2;P2;SDS_P1;SDS_P2;PMS_P1;PMS_P2;Temp;Humidity;BMP_temperature;BMP_pressure;BME280_temperature;BME280_humidity;BME280_pressure;Samples;Min_cycle;Max_cycle;Signal;HPM_P1;HPM_P2
2021/11/04 00:01:33;;;;;;;78.40;31.75;;;;;;;4.72;nan;100506.88;5101120;28;20127;-81
2021/11/04 00:03:58;;;;;;;67.15;29.92;;;;;;;4.75;nan;100507.25;5125001;27;20012;-81
2021/11/04 00:06:24;;;;;;;68.70;29.25;;;;;;;4.77;nan;100491.94;5130043;27;20028;-81
2021/11/04 00:08:49;;;;;;;65.38;28.38;;;;;;;4.79;nan;100478.44;5108576;27;20058;-81
2021/11/04 00:11:15;;;;;;;76.15;30.48;;;;;;;4.78;nan;100472.31;5109721;27;20027;-81
2021/11/04 00:13:41;;;;;;;86.78;34.30;;;;;;;4.79;nan;100475.78;5125688;27;20027;-81
2021/11/04 00:16:09;;;;;;;62.78;29.00;;;;;;;4.77;nan;100480.50;5113121;27;20035;-80
2021/11/04 00:18:35;;;;;;;85.20;33.28;;;;;;;4.78;nan;100488.25;5112984;27;20027;-81
2021/11/04 00:21:01;;;;;;;72.05;30.90;;;;;;;4.76;nan;100484.19;5109120;28;20243;-81
2021/11/04 00:23:27;;;;;;;80.53;32.88;;;;;;;4.72;nan;100483.00;5114134;27;20062;-81
2021/11/04 00:25:52;;;;;;;64.18;28.02;;;;;;;4.77;nan;100485.81;5115247;27;20027;-81
2021/11/04 00:28:18;;;;;;;77.65;31.27;;;;;;;4.77;nan;100488.47;5108221;27;20433;-81
2021/11/04 00:30:44;;;;;;;86.45;33.22;;;;;;;4.75;nan;100498.47;5106802;27;20463;-80
2021/11/04 00:33:09;;;;;;;73.30;30.05;;;;;;;4.80;nan;100491.50;5126234;27;20084;-81
2021/11/04 00:35:35;;;;;;;87.40;33.10;;;;;;;4.77;nan;100494.59;5111272;27;20111;-81
2021/11/04 00:38:02;;;;;;;68.82;29.27;;;;;;;4.77;nan;100486.63;5119826;27;20020;-81
2021/11/04 00:40:27;;;;;;;93.95;33.50;;;;;;;4.76;nan;100474.38;5118283;27;20028;-81
2021/11/04 00:42:53;;;;;;;74.45;29.88;;;;;;;4.77;nan;100469.88;5104893;27;20360;-81
2021/11/04 00:45:21;;;;;;;74.10;30.90;;;;;;;4.75;nan;100469.28;5123878;27;20039;-81
2021/11/04 00:47:49;;;;;;;77.53;30.38;;;;;;;4.78;nan;100464.34;5101907;28;20055;-81
2021/11/04 00:50:15;;;;;;;68.97;28.80;;;;;;;4.79;nan;100465.97;5124781;27;20405;-81
2021/11/04 00:52:41;;;;;;;70.10;29.33;;;;;;;4.81;nan;100461.25;5104976;27;20026;-81
2021/11/04 00:55:08;;;;;;;64.40;26.15;;;;;;;4.80;nan;100451.66;5109923;27;20042;-80
2021/11/04 00:57:34;;;;;;;61.35;27.65;;;;;;;4.76;nan;100436.41;5110121;27;20504;-81
2021/11/04 01:00:00;;;;;;;68.22;27.17;;;;;;;4.75;nan;100432.13;5111326;27;20031;-81
2021/11/04 01:02:26;;;;;;;65.20;26.13;;;;;;;4.79;nan;100428.00;5121380;27;20036;-81
2021/11/04 01:04:52;;;;;;;62.25;27.58;;;;;;;4.78;nan;100424.53;5105657;28;20028;-81
2021/11/04 01:07:17;;;;;;;70.22;27.38;;;;;;;4.78;nan;100423.72;5109942;27;20027;-81
2021/11/04 01:09:43;;;;;;;70.47;27.77;;;;;;;4.78;nan;100415.75;5103922;28;20019;-81
2021/11/04 01:12:08;;;;;;;69.40;27.35;;;;;;;4.81;nan;100417.97;5123934;27;20028;-81
2021/11/04 01:14:34;;;;;;;67.03;28.88;;;;;;;4.85;nan;100409.38;5100908;28;20028;-81
2021/11/04 01:17:00;;;;;;;64.25;27.60;;;;;;;4.86;nan;100412.84;5107822;28;20635;-81
2021/11/04 01:19:25;;;;;;;64.60;27.67;;;;;;;4.90;nan;100410.56;5111943;27;20030;-81
2021/11/04 01:21:51;;;;;;;72.75;29.67;;;;;;;4.88;nan;100412.63;5099435;27;20480;-81
2021/11/04 01:24:16;;;;;;;65.38;27.92;;;;;;;4.84;nan;100402.44;5100918;27;20105;-81
2021/11/04 01:26:42;;;;;;;69.05;27.60;;;;;;;4.87;nan;100409.16;5098782;28;20033;-81
2021/11/04 01:29:07;;;;;;;68.63;29.33;;;;;;;4.88;nan;100399.34;5124976;27;20058;-81
2021/11/04 01:31:33;;;;;;;64.63;28.00;;;;;;;4.92;nan;100396.03;5102295;27;20053;-81
2021/11/04 01:33:59;;;;;;;66.50;28.60;;;;;;;4.94;nan;100393.97;5121619;27;20027;-81
2021/11/04 01:36:24;;;;;;;63.88;27.20;;;;;;;4.95;nan;100398.25;5124742;27;20027;-81
2021/11/04 01:38:51;;;;;;;73.85;30.25;;;;;;;4.92;nan;100388.06;5112065;27;20531;-81
2021/11/04 01:41:59;;;;;;;69.13;27.70;;;;;;;4.78;nan;100387.38;5094022;28;20042;-81
2021/11/04 01:48:51;;;;;;;67.88;28.50;;;;;;;4.78;nan;100386.56;5102681;28;20069;-81
2021/11/04 01:51:29;;;;;;;62.80;27.13;;;;;;;4.78;nan;100387.38;5103071;27;20412;-81
2021/11/04 01:54:50;;;;;;;66.20;26.77;;;;;;;4.71;nan;100383.19;5102824;27;20035;-81
2021/11/04 01:58:07;;;;;;;61.50;27.23;;;;;;;4.78;nan;100389.22;5049077;27;20281;-81
2021/11/04 02:01:21;;;;;;;68.90;27.15;;;;;;;4.84;nan;100389.16;5109125;28;20079;-81
2021/11/04 02:04:09;;;;;;;65.03;27.55;;;;;;;4.99;nan;100399.44;5111548;28;20024;-80
2021/11/04 02:07:13;;;;;;;66.57;27.17;;;;;;;5.06;nan;100389.56;5087902;28;20036;-80
2021/11/04 02:10:27;;;;;;;57.15;24.13;;;;;;;5.15;nan;100382.09;5109570;27;20081;-80
2021/11/04 02:13:37;;;;;;;59.13;25.40;;;;;;;5.25;nan;100377.09;5089328;28;20031;-80
2021/11/04 02:16:05;;;;;;;57.03;24.65;;;;;;;5.30;nan;100379.09;5098017;28;20607;-80
2021/11/04 02:19:09;;;;;;;49.03;24.00;;;;;;;5.37;nan;100375.31;5101355;28;20405;-80
2021/11/04 02:21:39;;;;;;;56.00;25.13;;;;;;;5.41;nan;100370.38;5107326;28;20396;-80
2021/11/04 02:24:36;;;;;;;60.70;26.67;;;;;;;5.36;nan;100356.94;5098199;28;20027;-80
2021/11/04 02:27:02;;;;;;;59.33;24.65;;;;;;;5.38;nan;100368.16;5100689;28;20046;-82
2021/11/04 02:29:29;;;;;;;62.13;26.08;;;;;;;5.40;nan;100363.44;5126046;28;20027;-80
2021/11/04 02:31:54;;;;;;;62.05;27.02;;;;;;;5.45;nan;100356.41;5111233;28;20442;-80
2021/11/04 02:34:21;;;;;;;62.75;25.52;;;;;;;5.45;nan;100350.28;5096627;28;20024;-80
2021/11/04 02:36:47;;;;;;;67.05;27.08;;;;;;;5.41;nan;100351.78;5099185;28;20081;-80
2021/11/04 02:39:14;;;;;;;72.15;29.42;;;;;;;5.39;nan;100357.31;5090337;28;20409;-81
2021/11/04 02:41:40;;;;;;;59.70;27.90;;;;;;;5.38;nan;100354.84;5109039;27;20023;-80
2021/11/04 02:44:11;;;;;;;64.72;27.92;;;;;;;5.40;nan;100347.50;5102501;27;20039;-81
2021/11/04 02:46:37;;;;;;;67.07;29.50;;;;;;;5.41;nan;100347.28;5100601;28;20041;-81
2021/11/04 02:49:05;;;;;;;66.25;27.17;;;;;;;5.44;nan;100335.38;5101164;28;20027;-80
2021/11/04 02:51:31;;;;;;;60.15;26.40;;;;;;;5.48;nan;100333.91;5126024;27;20155;-80
2021/11/04 02:53:58;;;;;;;68.85;29.92;;;;;;;5.44;nan;100322.91;5107626;28;20051;-80
2021/11/04 02:56:24;;;;;;;69.70;28.98;;;;;;;5.49;nan;100321.41;5094206;27;20051;-80
2021/11/04 02:58:49;;;;;;;69.68;28.77;;;;;;;5.46;nan;100315.53;5105598;28;20027;-80
2021/11/04 03:01:15;;;;;;;77.20;29.83;;;;;;;5.47;nan;100317.16;5094595;28;20125;-80
2021/11/04 03:03:41;;;;;;;75.72;28.05;;;;;;;5.50;nan;100309.75;5099493;28;20019;-80
2021/11/04 03:06:06;;;;;;;63.00;28.08;;;;;;;5.51;nan;100303.41;5094024;28;20150;-80
2021/11/04 03:08:32;;;;;;;65.47;28.52;;;;;;;5.54;nan;100309.06;5096430;28;20032;-80
2021/11/04 03:10:57;;;;;;;65.80;27.35;;;;;;;5.54;nan;100310.91;5092387;28;20023;-81
2021/11/04 03:13:23;;;;;;;62.13;28.00;;;;;;;5.57;nan;100308.66;5107908;27;20031;-80
2021/11/04 03:15:57;;;;;;;65.78;28.20;;;;;;;5.57;nan;100308.66;5094631;27;20031;-80
2021/11/04 03:18:24;;;;;;;64.93;27.33;;;;;;;5.62;nan;100318.59;5129356;27;20019;-81
2021/11/04 03:21:05;;;;;;;64.50;27.17;;;;;;;5.54;nan;100310.91;5111406;27;20025;-81
2021/11/04 03:23:31;;;;;;;71.30;28.70;;;;;;;5.62;nan;100306.13;5108861;28;20035;-81
2021/11/04 03:25:59;;;;;;;65.97;28.67;;;;;;;5.62;nan;100300.81;5092904;28;20024;-81
2021/11/04 03:28:25;;;;;;;60.08;27.50;;;;;;;5.66;nan;100296.66;5099086;28;20032;-81
2021/11/04 03:30:52;;;;;;;59.47;25.95;;;;;;;5.65;nan;100291.56;5109127;28;20028;-80
2021/11/04 03:33:18;;;;;;;59.60;27.13;;;;;;;5.63;nan;100297.09;5112911;27;20023;-81
2021/11/04 03:35:46;;;;;;;64.47;29.13;;;;;;;5.62;nan;100294.69;5111628;27;20034;-81
2021/11/04 03:38:13;;;;;;;61.63;28.05;;;;;;;5.55;nan;100292.09;5110361;27;20110;-81
2021/11/04 03:40:39;;;;;;;66.82;29.08;;;;;;;5.53;nan;100288.84;5100272;28;20039;-81
2021/11/04 03:43:06;;;;;;;62.78;29.02;;;;;;;5.44;nan;100293.69;5131732;27;20057;-80
2021/11/04 03:45:34;;;;;;;64.20;27.40;;;;;;;5.47;nan;100279.94;5117355;28;20020;-80
2021/11/04 03:48:00;;;;;;;63.45;28.02;;;;;;;5.50;nan;100289.31;5118668;27;20038;-80
2021/11/04 03:50:26;;;;;;;63.58;28.83;;;;;;;5.53;nan;100288.03;5124055;28;20110;-80
2021/11/04 03:52:53;;;;;;;65.72;27.52;;;;;;;5.57;nan;100286.56;5118187;28;20027;-81
2021/11/04 03:55:20;;;;;;;64.75;28.70;;;;;;;5.59;nan;100287.16;5125876;27;20020;-80
2021/11/04 03:57:46;;;;;;;56.95;25.65;;;;;;;5.57;nan;100290.03;5122440;27;20030;-81
2021/11/04 04:00:14;;;;;;;61.97;28.33;;;;;;;5.53;nan;100288.84;5120278;27;20015;-80
2021/11/04 04:02:43;;;;;;;60.63;27.30;;;;;;;5.56;nan;100287.59;5114070;28;20072;-80
2021/11/04 04:05:09;;;;;;;58.20;26.08;;;;;;;5.59;nan;100287.97;5123241;27;20034;-81
2021/11/04 04:07:34;;;;;;;54.85;25.90;;;;;;;5.53;nan;100283.53;5115403;27;20115;-80
2021/11/04 04:10:00;;;;;;;57.90;26.15;;;;;;;5.54;nan;100294.97;5111844;27;20019;-80
2021/11/04 04:12:26;;;;;;;62.03;27.17;;;;;;;5.57;nan;100287.38;5105559;28;20067;-80
2021/11/04 04:14:52;;;;;;;56.95;26.80;;;;;;;5.58;nan;100291.66;5109570;27;20031;-81
2021/11/04 04:17:20;;;;;;;57.17;25.33;;;;;;;5.58;nan;100277.56;5109824;28;20011;-80
2021/11/04 04:19:46;;;;;;;61.15;26.67;;;;;;;5.59;nan;100281.84;5102914;27;20023;-80
2021/11/04 04:22:11;;;;;;;63.08;27.13;;;;;;;5.64;nan;100272.16;5120323;27;20601;-81
2021/11/04 04:24:37;;;;;;;62.10;26.08;;;;;;;5.67;nan;100262.91;5108493;28;20043;-80
2021/11/04 04:27:03;;;;;;;61.28;27.38;;;;;;;5.70;nan;100252.63;5105835;27;20039;-81
2021/11/04 04:29:29;;;;;;;58.83;27.00;;;;;;;5.68;nan;100254.69;5105765;28;20034;-81
2021/11/04 04:31:55;;;;;;;57.03;25.65;;;;;;;5.67;nan;100250.41;5122780;27;20573;-81
2021/11/04 04:34:21;;;;;;;58.22;25.80;;;;;;;5.63;nan;100233.31;5101782;28;20020;-81
2021/11/04 04:36:47;;;;;;;56.95;26.80;;;;;;;5.62;nan;100234.34;5125246;27;20102;-81
2021/11/04 04:39:15;;;;;;;56.63;26.83;;;;;;;5.55;nan;100235.47;5118859;27;20047;-81
2021/11/04 04:41:51;;;;;;;62.40;25.60;;;;;;;5.49;nan;100223.91;5095034;27;20485;-80
2021/11/04 04:44:24;;;;;;;66.18;28.95;;;;;;;5.42;nan;100216.06;5107832;27;20035;-80
2021/11/04 04:46:50;;;;;;;60.63;26.20;;;;;;;5.40;nan;100218.13;5096665;28;20103;-81
2021/11/04 04:49:21;;;;;;;60.55;26.35;;;;;;;5.29;nan;100226.06;5106006;27;20053;-81
2021/11/04 04:51:50;;;;;;;64.40;27.35;;;;;;;5.27;nan;100209.53;5122937;27;20034;-80
2021/11/04 04:54:38;;;;;;;63.72;28.65;;;;;;;5.21;nan;100221.88;5123905;27;20038;-80
2021/11/04 04:57:04;;;;;;;69.78;29.85;;;;;;;5.22;nan;100225.34;5100260;28;20122;-81
2021/11/04 04:59:30;;;;;;;69.47;28.92;;;;;;;5.20;nan;100232.69;5102887;28;20126;-78
2021/11/04 05:01:55;;;;;;;62.17;28.00;;;;;;;5.27;nan;100226.28;5097203;28;20390;-79
2021/11/04 05:04:21;;;;;;;72.97;30.42;;;;;;;5.31;nan;100231.94;5110443;28;20028;-79
2021/11/04 05:06:46;;;;;;;70.93;28.30;;;;;;;5.37;nan;100236.34;5094086;28;20443;-79
2021/11/04 05:09:12;;;;;;;68.88;29.67;;;;;;;5.37;nan;100226.53;5109129;28;20031;-79
2021/11/04 05:11:37;;;;;;;64.85;27.83;;;;;;;5.36;nan;100219.59;5111628;28;20093;-79
2021/11/04 05:14:03;;;;;;;68.43;30.75;;;;;;;5.39;nan;100213.84;5098000;27;20373;-79
2021/11/04 05:16:29;;;;;;;62.17;27.45;;;;;;;5.40;nan;100209.34;5093924;28;20481;-81
2021/11/04 05:18:54;;;;;;;67.45;27.88;;;;;;;5.41;nan;100203.81;5106183;27;20499;-81
2021/11/04 05:21:19;;;;;;;62.28;28.65;;;;;;;5.40;nan;100196.88;5107013;27;20630;-81
2021/11/04 05:23:45;;;;;;;64.60;29.88;;;;;;;5.38;nan;100200.78;5111201;27;20453;-81
2021/11/04 05:26:11;;;;;;;69.93;29.38;;;;;;;5.36;nan;100200.19;5105413;27;20031;-81
2021/11/04 05:28:37;;;;;;;71.55;29.10;;;;;;;5.38;nan;100209.56;5112196;27;20019;-81
2021/11/04 05:31:03;;;;;;;67.10;29.15;;;;;;;5.37;nan;100220.41;5110957;27;20036;-81
2021/11/04 05:33:28;;;;;;;64.20;28.80;;;;;;;5.39;nan;100219.19;5108037;27;20024;-81
2021/11/04 05:35:54;;;;;;;63.75;28.73;;;;;;;5.43;nan;100206.25;5083154;28;20560;-81
2021/11/04 05:38:20;;;;;;;63.30;28.65;;;;;;;5.48;nan;100214.31;5098365;27;20050;-82
2021/11/04 05:40:46;;;;;;;69.53;29.42;;;;;;;5.53;nan;100206.47;5114334;27;20027;-81
2021/11/04 05:43:11;;;;;;;60.63;27.92;;;;;;;5.56;nan;100202.53;5114299;27;20072;-81
2021/11/04 05:45:37;;;;;;;70.47;30.17;;;;;;;5.55;nan;100196.44;5103688;28;20221;-81
2021/11/04 05:48:03;;;;;;;66.82;29.23;;;;;;;5.58;nan;100192.53;5105957;27;20032;-81
2021/11/04 05:50:28;;;;;;;64.32;29.73;;;;;;;5.59;nan;100188.84;5100363;28;20031;-81
2021/11/04 05:52:54;;;;;;;59.45;28.88;;;;;;;5.63;nan;100182.00;5092507;28;20039;-82
2021/11/04 05:55:19;;;;;;;67.10;30.33;;;;;;;5.66;nan;100165.59;5089094;28;20054;-81
2021/11/04 05:57:45;;;;;;;67.25;30.50;;;;;;;5.62;nan;100161.78;5111838;27;20126;-82
2021/11/04 06:00:11;;;;;;;69.15;29.45;;;;;;;5.63;nan;100166.88;5102914;27;20124;-81
2021/11/04 06:02:36;;;;;;;64.60;29.63;;;;;;;5.60;nan;100158.56;5092950;28;20092;-81
2021/11/04 06:05:03;;;;;;;59.28;29.33;;;;;;;5.61;nan;100160.97;5091378;28;20045;-81
2021/11/04 06:07:29;;;;;;;63.28;29.85;;;;;;;5.59;nan;100171.03;5100806;28;20028;-82
2021/11/04 06:09:55;;;;;;;65.22;29.73;;;;;;;5.60;nan;100158.56;5085027;28;20388;-82
2021/11/04 06:12:20;;;;;;;61.85;28.83;;;;;;;5.61;nan;100155.66;5092410;28;20457;-82
2021/11/04 06:14:46;;;;;;;58.42;27.20;;;;;;;5.61;nan;100152.19;5099284;28;20114;-83
2021/11/04 06:17:11;;;;;;;67.43;28.42;;;;;;;5.62;nan;100148.50;5095964;28;20472;-82
2021/11/04 06:19:37;;;;;;;60.60;27.77;;;;;;;5.63;nan;100156.25;5100528;28;20042;-82
2021/11/04 06:22:03;;;;;;;65.05;30.70;;;;;;;5.64;nan;100146.44;5111922;28;20034;-82
2021/11/04 06:24:28;;;;;;;66.97;30.25;;;;;;;5.67;nan;100144.09;5103855;28;20115;-82
2021/11/04 06:26:54;;;;;;;65.57;28.60;;;;;;;5.66;nan;100147.00;5105038;28;20105;-82
2021/11/04 06:29:20;;;;;;;63.75;28.58;;;;;;;5.66;nan;100144.34;5114343;28;20045;-82
2021/11/04 06:31:45;;;;;;;65.90;29.25;;;;;;;5.65;nan;100154.16;5093591;28;20030;-82
2021/11/04 06:34:11;;;;;;;70.68;32.10;;;;;;;5.64;nan;100147.22;5090585;28;20038;-82
2021/11/04 06:36:36;;;;;;;64.55;27.80;;;;;;;5.64;nan;100136.59;5114511;28;20093;-82
2021/11/04 06:39:03;;;;;;;68.25;30.45;;;;;;;5.66;nan;100145.16;5110025;28;20027;-82
2021/11/04 06:41:28;;;;;;;70.15;30.85;;;;;;;5.64;nan;100144.56;5098316;28;20062;-82
2021/11/04 06:43:53;;;;;;;63.22;29.30;;;;;;;5.66;nan;100150.47;5110999;28;20465;-82
2021/11/04 06:46:24;;;;;;;62.35;29.25;;;;;;;5.66;nan;100152.31;5094264;28;20027;-82
2021/11/04 06:49:17;;;;;;;72.85;31.70;;;;;;;5.61;nan;100142.38;5111813;28;20030;-82
2021/11/04 06:51:45;;;;;;;69.30;31.15;;;;;;;5.70;nan;100142.84;5114154;28;21135;-82
2021/11/04 06:54:14;;;;;;;69.32;32.25;;;;;;;5.65;nan;100151.50;5110265;28;20054;-82
2021/11/04 06:56:48;;;;;;;69.13;31.98;;;;;;;5.69;nan;100155.31;5117197;28;20055;-82
2021/11/04 06:59:25;;;;;;;61.05;30.45;;;;;;;5.73;nan;100147.69;5111856;28;20047;-82
2021/11/04 07:01:56;;;;;;;74.65;32.45;;;;;;;5.76;nan;100153.38;5122994;28;20061;-83
2021/11/04 07:04:40;;;;;;;71.57;32.03;;;;;;;5.79;nan;100169.91;5118702;28;20035;-82
2021/11/04 07:07:13;;;;;;;67.63;31.23;;;;;;;5.86;nan;100154.63;5101275;28;20039;-82
2021/11/04 07:09:41;;;;;;;69.00;31.20;;;;;;;5.88;nan;100149.88;5101568;28;20031;-82
2021/11/04 07:12:10;;;;;;;67.47;31.45;;;;;;;5.86;nan;100144.00;5106017;28;20035;-82
2021/11/04 07:14:39;;;;;;;67.95;31.80;;;;;;;5.90;nan;100135.34;5105873;28;20031;-82
2021/11/04 07:17:05;;;;;;;67.85;32.30;;;;;;;5.94;nan;100138.38;5105367;28;20024;-82
2021/11/04 07:19:31;;;;;;;65.68;31.13;;;;;;;5.94;nan;100120.56;5106348;28;20030;-82
2021/11/04 07:22:08;;;;;;;62.40;29.90;;;;;;;5.95;nan;100116.06;5101834;28;20023;-82
2021/11/04 07:25:07;;;;;;;65.82;30.17;;;;;;;5.92;nan;100106.69;5106888;28;20027;-82
2021/11/04 07:27:42;;;;;;;61.75;29.70;;;;;;;5.96;nan;100107.03;5108351;27;20377;-82
2021/11/04 07:30:11;;;;;;;66.88;31.73;;;;;;;5.99;nan;100103.91;5104749;27;20099;-82
2021/11/04 07:32:46;;;;;;;65.60;30.45;;;;;;;5.98;nan;100094.31;5107702;27;20031;-82
2021/11/04 07:35:14;;;;;;;70.57;31.48;;;;;;;6.02;nan;100093.63;5112185;27;20088;-82
2021/11/04 07:37:42;;;;;;;68.18;32.40;;;;;;;6.05;nan;100087.81;5108103;27;20024;-82
2021/11/04 07:40:08;;;;;;;72.90;32.55;;;;;;;6.00;nan;100077.09;5091736;27;20047;-82
2021/11/04 07:42:35;;;;;;;63.72;29.48;;;;;;;6.06;nan;100070.81;5108495;27;20507;-82
2021/11/04 07:45:00;;;;;;;68.35;30.23;;;;;;;6.03;nan;100071.28;5106895;27;20069;-82
2021/11/04 07:47:26;;;;;;;64.40;30.65;;;;;;;6.09;nan;100066.88;5117258;27;20067;-82
2021/11/04 07:49:52;;;;;;;69.38;33.05;;;;;;;6.16;nan;100061.44;5095835;27;20023;-82
2021/11/04 07:52:18;;;;;;;61.35;31.88;;;;;;;6.18;nan;100060.16;5109808;28;20028;-82
2021/11/04 07:54:43;;;;;;;62.72;30.52;;;;;;;6.15;nan;100052.66;5107552;27;20039;-82
2021/11/04 07:57:09;;;;;;;67.43;30.90;;;;;;;6.16;nan;100048.94;5117886;27;20050;-82
2021/11/04 07:59:34;;;;;;;62.10;29.75;;;;;;;6.19;nan;100035.19;5116676;27;20019;-82
2021/11/04 08:02:01;;;;;;;76.07;31.42;;;;;;;6.24;nan;100040.59;5101891;27;20492;-82
2021/11/04 08:04:29;;;;;;;64.38;31.20;;;;;;;6.24;nan;100037.13;5122884;27;20045;-83
2021/11/04 08:06:56;;;;;;;69.80;32.05;;;;;;;6.28;nan;100027.63;5105286;27;20043;-82
2021/11/04 08:09:23;;;;;;;62.97;28.95;;;;;;;6.33;nan;100023.22;5125724;27;20114;-82
2021/11/04 08:11:48;;;;;;;62.83;30.63;;;;;;;6.32;nan;100018.13;5125245;27;20472;-82
2021/11/04 08:14:14;;;;;;;62.45;28.75;;;;;;;6.35;nan;100017.66;5107707;27;20023;-82
2021/11/04 08:16:40;;;;;;;70.43;31.83;;;;;;;6.37;nan;100012.91;5122696;27;20050;-82
2021/11/04 08:19:06;;;;;;;61.85;31.02;;;;;;;6.41;nan;100008.72;5109328;27;20024;-82
2021/11/04 08:21:31;;;;;;;66.60;31.55;;;;;;;6.43;nan;100003.16;5106536;27;20049;-83
2021/11/04 08:23:57;;;;;;;65.30;32.92;;;;;;;6.50;nan;99995.84;5120437;27;20055;-82
2021/11/04 08:26:22;;;;;;;69.95;33.65;;;;;;;6.54;nan;99991.66;5121268;27;20488;-82
2021/11/04 08:28:48;;;;;;;71.47;33.28;;;;;;;6.54;nan;99989.00;5107278;27;20121;-82
2021/11/04 08:31:13;;;;;;;73.25;35.20;;;;;;;6.52;nan;99980.44;5105593;27;20034;-82
2021/11/04 08:33:39;;;;;;;72.82;34.58;;;;;;;6.54;nan;99981.00;5119653;27;20099;-83
2021/11/04 08:36:05;;;;;;;73.53;37.05;;;;;;;6.53;nan;99980.19;5102448;27;20343;-82
2021/11/04 08:38:30;;;;;;;69.07;34.10;;;;;;;6.57;nan;99976.00;5102344;28;20439;-83
2021/11/04 08:40:56;;;;;;;76.45;35.78;;;;;;;6.56;nan;99968.25;5103249;27;20031;-82
2021/11/04 08:43:21;;;;;;;74.25;36.00;;;;;;;6.55;nan;99972.78;5123253;27;20026;-83
2021/11/04 08:45:47;;;;;;;76.88;35.15;;;;;;;6.60;nan;99964.88;5107184;27;20031;-82
2021/11/04 08:48:14;;;;;;;79.55;34.92;;;;;;;6.62;nan;99962.78;5104886;27;20397;-82
2021/11/04 08:50:40;;;;;;;81.43;37.00;;;;;;;6.62;nan;99959.31;5120728;27;20023;-83
2021/11/04 08:53:07;;;;;;;78.47;36.10;;;;;;;6.66;nan;99963.13;5106641;27;21383;-82
2021/11/04 08:55:32;;;;;;;76.22;35.20;;;;;;;6.68;nan;99955.69;5106946;27;20026;-83
2021/11/04 08:57:58;;;;;;;79.20;36.55;;;;;;;6.69;nan;99959.16;5103367;27;20623;-83
2021/11/04 09:00:24;;;;;;;79.82;36.38;;;;;;;6.68;nan;99955.69;5096485;28;20024;-83
2021/11/04 09:02:49;;;;;;;84.40;36.05;;;;;;;6.68;nan;99947.72;5112852;27;20062;-83
2021/11/04 09:05:15;;;;;;;77.63;36.15;;;;;;;6.69;nan;99951.19;5101563;27;20022;-83
2021/11/04 09:07:41;;;;;;;83.15;37.08;;;;;;;6.70;nan;99956.25;5118288;27;20075;-84
2021/11/04 09:10:11;;;;;;;90.30;39.03;;;;;;;6.66;nan;99941.81;5119742;28;20040;-83
2021/11/04 09:12:38;;;;;;;82.72;39.10;;;;;;;6.68;nan;99931.75;5110385;27;20050;-83
2021/11/04 09:15:06;;;;;;;80.80;36.80;;;;;;;6.71;nan;99933.91;5109559;27;20030;-83
2021/11/04 09:17:32;;;;;;;88.13;37.45;;;;;;;6.69;nan;99933.34;5115714;27;20274;-83
2021/11/04 09:19:58;;;;;;;97.40;39.42;;;;;;;6.70;nan;99926.97;5109019;27;20030;-83
2021/11/04 09:22:24;;;;;;;75.28;36.47;;;;;;;6.75;nan;99923.56;5112679;27;20027;-83
2021/11/04 09:24:50;;;;;;;75.88;36.83;;;;;;;6.76;nan;99914.53;5124824;27;20019;-83
2021/11/04 09:27:15;;;;;;;88.15;37.40;;;;;;;6.77;nan;99911.63;5112148;27;20335;-83
2021/11/04 09:29:42;;;;;;;74.03;36.20;;;;;;;6.76;nan;99907.34;5115417;27;20030;-83
2021/11/04 09:32:08;;;;;;;75.00;37.00;;;;;;;6.79;nan;99903.41;5104028;27;20916;-83
2021/11/04 09:34:34;;;;;;;81.35;35.90;;;;;;;6.82;nan;99898.41;5099649;27;20027;-83
2021/11/04 09:37:00;;;;;;;76.72;35.28;;;;;;;6.79;nan;99888.22;5109524;27;20098;-83
2021/11/04 09:39:25;;;;;;;79.90;36.60;;;;;;;6.81;nan;99890.66;5105272;27;20015;-83
2021/11/04 09:41:51;;;;;;;73.22;34.67;;;;;;;6.84;nan;99885.66;5126241;27;20015;-83
2021/11/04 09:44:19;;;;;;;71.28;32.70;;;;;;;6.85;nan;99875.81;5114561;28;20046;-83
2021/11/04 09:46:44;;;;;;;72.88;33.15;;;;;;;6.85;nan;99871.31;5105264;28;20028;-83
2021/11/04 09:49:10;;;;;;;68.85;33.17;;;;;;;6.87;nan;99876.38;5115195;27;20503;-83
2021/11/04 09:51:36;;;;;;;76.28;33.42;;;;;;;6.87;nan;99882.50;5104229;27;20035;-82
2021/11/04 09:54:02;;;;;;;71.30;33.08;;;;;;;6.88;nan;99872.66;5104173;28;20039;-83
2021/11/04 09:56:29;;;;;;;68.05;33.80;;;;;;;6.87;nan;99873.72;5103588;28;20027;-83
2021/11/04 09:58:54;;;;;;;71.05;33.03;;;;;;;6.89;nan;99863.63;5099189;27;20038;-83
2021/11/04 10:01:27;;;;;;;70.65;33.85;;;;;;;6.89;nan;99848.44;5109596;27;20019;-83
2021/11/04 10:03:53;;;;;;;64.38;31.02;;;;;;;6.95;nan;99842.13;5104148;27;20019;-83
2021/11/04 10:06:26;;;;;;;64.28;31.65;;;;;;;6.94;nan;99835.19;5100689;28;20089;-83
2021/11/04 10:08:54;;;;;;;62.63;30.02;;;;;;;6.97;nan;99829.38;5106994;27;20047;-83
2021/11/04 10:11:21;;;;;;;56.33;29.20;;;;;;;6.97;nan;99825.91;5109211;28;20024;-83
2021/11/04 10:13:49;;;;;;;64.55;30.10;;;;;;;7.00;nan;99808.63;5118685;28;20023;-83
2021/11/04 10:16:17;;;;;;;69.45;31.55;;;;;;;6.97;nan;99802.75;5098267;28;20027;-83
2021/11/04 10:18:51;;;;;;;61.25;29.05;;;;;;;6.95;nan;99796.84;5113604;28;20156;-83
2021/11/04 10:21:28;;;;;;;65.53;29.27;;;;;;;6.97;nan;99789.41;5119853;28;20492;-83
2021/11/04 10:23:54;;;;;;;58.38;27.88;;;;;;;6.97;nan;99784.09;5114762;28;20054;-83
2021/11/04 10:26:25;;;;;;;59.78;29.30;;;;;;;6.97;nan;99778.78;5116731;28;20074;-82
2021/11/04 10:28:58;;;;;;;55.28;27.33;;;;;;;7.01;nan;99776.44;5105137;28;20849;-84
2021/11/04 10:31:24;;;;;;;59.20;28.48;;;;;;;7.01;nan;99768.44;5107195;28;20036;-84
2021/11/04 10:33:51;;;;;;;58.60;27.95;;;;;;;7.02;nan;99763.94;5110187;28;20056;-83
2021/11/04 10:36:24;;;;;;;55.28;28.17;;;;;;;7.07;nan;99756.00;5093341;28;20473;-82
2021/11/04 10:38:52;;;;;;;55.85;27.42;;;;;;;7.06;nan;99743.72;5117328;28;20097;-83
2021/11/04 10:41:22;;;;;;;49.90;25.42;;;;;;;7.09;nan;99737.91;5120340;28;20031;-83
2021/11/04 10:43:50;;;;;;;47.30;23.70;;;;;;;7.08;nan;99734.44;5109046;28;20023;-83
2021/11/04 10:46:17;;;;;;;49.15;24.83;;;;;;;7.08;nan;99728.31;5110085;28;20035;-82
2021/11/04 10:48:45;;;;;;;42.42;22.67;;;;;;;7.08;nan;99710.47;5097485;28;20015;-83
2021/11/04 10:51:18;;;;;;;47.72;23.30;;;;;;;7.08;nan;99707.78;5107255;28;20036;-83
2021/11/04 10:53:54;;;;;;;45.45;24.33;;;;;;;7.07;nan;99706.19;5099379;28;20024;-83
2021/11/04 10:56:21;;;;;;;43.83;22.88;;;;;;;7.10;nan;99692.38;5109815;28;20055;-82
2021/11/04 10:59:17;;;;;;;46.55;23.80;;;;;;;7.02;nan;99678.72;5107343;28;20043;-82
2021/11/04 11:01:44;;;;;;;50.90;22.83;;;;;;;7.12;nan;99678.78;5075171;28;20032;-83
2021/11/04 11:04:21;;;;;;;36.67;19.70;;;;;;;7.10;nan;99671.06;5111849;27;20110;-82
2021/11/04 11:06:50;;;;;;;41.35;21.70;;;;;;;7.09;nan;99658.78;5117307;27;20037;-83
2021/11/04 11:09:21;;;;;;;35.83;19.35;;;;;;;7.13;nan;99651.91;5098937;28;20728;-85
2021/11/04 11:11:48;;;;;;;37.58;20.98;;;;;;;7.13;nan;99651.09;5097350;27;20034;-83
2021/11/04 11:14:16;;;;;;;38.80;21.73;;;;;;;7.09;nan;99642.00;5106749;28;20054;-83
2021/11/04 11:16:43;;;;;;;41.60;21.02;;;;;;;7.13;nan;99646.56;5100155;27;20031;-83
2021/11/04 11:19:10;;;;;;;40.38;21.73;;;;;;;7.15;nan;99638.31;5122566;27;20027;-83
2021/11/04 11:21:42;;;;;;;34.08;19.25;;;;;;;7.14;nan;99634.06;5107673;27;20109;-83
2021/11/04 11:24:13;;;;;;;41.28;21.27;;;;;;;7.17;nan;99626.38;5122401;27;20016;-82
2021/11/04 11:26:41;;;;;;;37.00;20.58;;;;;;;7.21;nan;99619.50;5112223;28;20405;-84
2021/11/04 11:29:07;;;;;;;41.00;20.42;;;;;;;7.19;nan;99610.97;5105668;27;20024;-82
2021/11/04 11:31:33;;;;;;;33.80;18.60;;;;;;;7.26;nan;99605.41;5104404;27;20032;-82
2021/11/04 11:33:58;;;;;;;37.15;19.23;;;;;;;7.25;nan;99606.47;5111322;27;20101;-83
2021/11/04 11:36:26;;;;;;;36.67;18.80;;;;;;;7.28;nan;99590.78;5104995;27;20118;-83
2021/11/04 11:38:58;;;;;;;37.30;18.55;;;;;;;7.30;nan;99593.19;5100106;28;20027;-82
2021/11/04 11:41:28;;;;;;;34.97;18.10;;;;;;;7.33;nan;99598.00;5097823;28;20119;-82
2021/11/04 11:43:58;;;;;;;38.35;19.45;;;;;;;7.32;nan;99591.06;5117839;27;20038;-82
2021/11/04 11:46:25;;;;;;;32.28;17.65;;;;;;;7.37;nan;99574.34;5097286;27;20045;-82
2021/11/04 11:49:10;;;;;;;35.30;17.75;;;;;;;7.36;nan;99570.88;5116584;27;20638;-84